Time;durP1;ratioP1;P1;durP2;ratioP2;P2;SDS_P1;SDS_P2;PMS_P1;PMS_P2;Temp;Humidity;BMP_temperature;BMP_pressure;BME280_temperature;BME280_humidity;BME280_pressure;Samples;Min_cycle;Max_cycle;Signal;HPM_P1;HPM_P2
2023/05/21 00:01:34;;;;;;;16.50;14.70;;;;;;;16.93;94.28;155711.31;4998733;28;20447;-87
2023/05/21 00:04:02;;;;;;;16.43;14.73;;;;;;;16.93;94.76;155712.63;4980329;28;20813;-88
2023/05/21 00:06:28;;;;;;;14.90;13.40;;;;;;;16.94;94.08;155713.94;4971609;28;20572;-87
2023/05/21 00:08:56;;;;;;;14.97;13.37;;;;;;;16.89;94.55;155702.19;4990120;28;20544;-87
2023/05/21 00:11:23;;;;;;;15.80;13.97;;;;;;;16.84;94.61;155689.19;4988196;28;20466;-88
2023/05/21 00:13:49;;;;;;;14.90;12.77;;;;;;;16.83;95.05;155686.59;4972244;28;20481;-87
2023/05/21 00:16:16;;;;;;;15.03;13.30;;;;;;;16.81;95.09;155681.38;4977636;28;20453;-87
2023/05/21 00:18:43;;;;;;;15.63;13.37;;;;;;;16.88;94.69;155698.31;4988146;28;20694;-87
2023/05/21 00:21:11;;;;;;;15.10;13.50;;;;;;;16.90;94.23;155704.81;4989972;28;20473;-87
2023/05/21 00:23:38;;;;;;;15.17;13.50;;;;;;;16.86;94.99;155694.41;4969725;28;20458;-87
2023/05/21 00:26:06;;;;;;;16.20;14.37;;;;;;;16.76;95.59;155668.38;4975966;28;20481;-88
2023/05/21 00:28:33;;;;;;;15.93;14.47;;;;;;;16.74;95.74;155661.88;4959562;28;20929;-88
2023/05/21 00:31:00;;;;;;;15.13;13.47;;;;;;;16.70;96.20;155652.78;4966854;28;20533;-87
2023/05/21 00:33:27;;;;;;;16.47;14.77;;;;;;;16.59;96.60;155622.84;4993326;28;20913;-88
2023/05/21 00:35:55;;;;;;;15.23;13.60;;;;;;;16.55;97.10;155613.72;4974743;28;21286;-87
2023/05/21 00:38:22;;;;;;;19.90;14.70;;;;;;;16.54;97.58;155611.16;4974273;28;20520;-88
2023/05/21 00:40:48;;;;;;;15.87;14.20;;;;;;;16.54;97.70;155611.16;4994053;28;20931;-87
2023/05/21 00:43:16;;;;;;;18.30;14.90;;;;;;;16.60;97.24;155626.72;4970403;28;20624;-88
2023/05/21 00:45:46;;;;;;;15.87;13.93;;;;;;;16.58;97.36;155621.53;4971071;28;20830;-88
2023/05/21 00:48:13;;;;;;;15.37;13.77;;;;;;;16.51;97.72;155603.28;4986486;28;20459;-88
2023/05/21 00:50:40;;;;;;;18.60;14.23;;;;;;;16.51;97.90;155601.97;4978070;28;20450;-87
2023/05/21 00:53:08;;;;;;;16.80;14.80;;;;;;;16.55;97.90;155613.72;4966371;28;20454;-88
2023/05/21 00:55:35;;;;;;;16.43;14.77;;;;;;;16.52;98.08;155605.88;4953900;28;20457;-87
2023/05/21 00:58:05;;;;;;;17.17;14.63;;;;;;;16.49;98.35;155598.09;4963193;28;20458;-88
2023/05/21 01:00:34;;;;;;;17.93;14.70;;;;;;;16.47;98.56;155592.88;4984300;28;20862;-87
2023/05/21 01:03:01;;;;;;;17.50;15.53;;;;;;;16.46;98.63;155590.28;4985942;28;20875;-87
2023/05/21 01:05:28;;;;;;;16.37;14.77;;;;;;;16.44;98.84;155585.09;4981752;28;20439;-88
2023/05/21 01:07:56;;;;;;;17.67;15.87;;;;;;;16.47;98.61;155592.88;4961273;28;20480;-88
2023/05/21 01:10:23;;;;;;;18.10;15.50;;;;;;;16.46;98.89;155590.28;4968165;28;21150;-87
2023/05/21 01:12:51;;;;;;;16.83;15.13;;;;;;;16.44;98.91;155586.38;4973350;28;20540;-87
2023/05/21 01:15:17;;;;;;;17.67;15.77;;;;;;;16.40;99.33;155575.97;4988291;28;20901;-87
2023/05/21 01:17:47;;;;;;;16.27;14.57;;;;;;;16.41;99.34;155577.28;4974506;28;20450;-87
2023/05/21 01:20:17;;;;;;;15.20;13.60;;;;;;;16.37;99.42;155568.16;4991823;28;20518;-87
2023/05/21 01:22:51;;;;;;;17.23;15.33;;;;;;;16.37;99.41;155566.84;4957664;28;20457;-88
2023/05/21 01:25:17;;;;;;;16.60;14.30;;;;;;;16.36;99.56;155565.56;4969217;28;20517;-87
2023/05/21 01:27:44;;;;;;;16.97;15.20;;;;;;;16.37;99.70;155566.84;4972388;28;20485;-87
2023/05/21 01:30:12;;;;;;;17.90;16.17;;;;;;;16.34;99.73;155560.34;4988674;28;20473;-87
2023/05/21 01:32:50;;;;;;;16.13;14.30;;;;;;;16.36;99.83;155564.28;4970299;28;20465;-87
2023/05/21 01:35:20;;;;;;;17.77;15.97;;;;;;;16.34;100.00;155559.06;4977161;28;20447;-87
2023/05/21 01:37:52;;;;;;;18.43;16.27;;;;;;;16.31;100.00;155551.25;4990028;28;20449;-87
2023/05/21 01:40:24;;;;;;;17.30;15.50;;;;;;;16.24;100.00;155534.34;4991816;28;20802;-88
2023/05/21 01:42:51;;;;;;;19.90;16.63;;;;;;;16.22;100.00;155527.84;4956909;28;20824;-87
2023/05/21 01:45:18;;;;;;;18.93;15.90;;;;;;;16.20;100.00;155522.66;4952123;28;20461;-86
2023/05/21 01:47:46;;;;;;;18.30;16.30;;;;;;;16.19;100.00;155520.03;4973627;28;20473;-87
2023/05/21 01:50:13;;;;;;;17.17;14.67;;;;;;;16.18;100.00;155517.44;4971009;28;20536;-87
2023/05/21 01:52:50;;;;;;;17.30;15.50;;;;;;;16.19;100.00;155520.03;4986788;28;20476;-87
2023/05/21 01:55:17;;;;;;;17.50;15.73;;;;;;;16.14;100.00;155507.06;4987847;28;20495;-87
2023/05/21 01:57:43;;;;;;;18.50;16.03;;;;;;;16.10;100.00;155497.94;4962817;28;20462;-87
2023/05/21 02:00:12;;;;;;;16.43;14.70;;;;;;;16.06;100.00;155486.25;4970150;28;20488;-87
2023/05/21 02:02:45;;;;;;;19.33;17.23;;;;;;;16.02;100.00;155477.13;4955489;28;20472;-87
2023/05/21 02:05:12;;;;;;;17.20;15.40;;;;;;;15.97;100.00;155462.81;4971356;28;20918;-88
2023/05/21 02:07:39;;;;;;;18.87;16.90;;;;;;;15.93;100.00;155452.44;4990859;28;20572;-87
2023/05/21 02:10:08;;;;;;;19.30;17.30;;;;;;;15.92;100.00;155451.13;4971468;28;20548;-87
2023/05/21 02:12:34;;;;;;;17.73;16.03;;;;;;;15.89;100.00;155442.00;4961475;28;20995;-87
2023/05/21 02:15:01;;;;;;;19.40;17.40;;;;;;;15.86;100.00;155434.25;4966123;28;20510;-87
2023/05/21 02:17:29;;;;;;;18.20;16.30;;;;;;;15.83;100.00;155427.75;4973681;28;20483;-87
2023/05/21 02:19:56;;;;;;;19.97;16.90;;;;;;;15.82;100.00;155426.44;4969325;28;20472;-87
2023/05/21 02:22:23;;;;;;;17.77;15.63;;;;;;;15.78;100.00;155416.03;4991423;28;20445;-87
2023/05/21 02:24:49;;;;;;;18.70;16.20;;;;;;;15.78;100.00;155416.03;4965672;28;20457;-87
2023/05/21 02:27:17;;;;;;;18.83;16.73;;;;;;;15.76;100.00;155410.84;4972828;28;20478;-87
2023/05/21 02:29:44;;;;;;;20.10;15.93;;;;;;;15.74;100.00;155405.66;4989589;28;20460;-87
2023/05/21 02:32:10;;;;;;;22.17;19.47;;;;;;;15.71;100.00;155397.84;4984037;28;20497;-87
2023/05/21 02:34:41;;;;;;;18.10;16.07;;;;;;;15.71;100.00;155396.53;4990271;28;20449;-87
2023/05/21 02:37:08;;;;;;;23.27;18.17;;;;;;;15.71;100.00;155396.53;4982548;28;20889;-87
2023/05/21 02:39:35;;;;;;;19.03;16.77;;;;;;;15.71;100.00;155397.84;4972818;28;20486;-87
2023/05/21 02:42:01;;;;;;;19.83;17.60;;;;;;;15.69;100.00;155392.66;4975337;28;20474;-87
2023/05/21 02:44:30;;;;;;;19.40;16.80;;;;;;;15.65;100.00;155382.22;4968928;28;20474;-87
2023/05/21 02:46:56;;;;;;;21.90;17.53;;;;;;;15.65;100.00;155382.22;4966365;28;20520;-87
2023/05/21 02:49:23;;;;;;;18.10;16.00;;;;;;;15.61;100.00;155371.84;4972954;28;20537;-87
2023/05/21 02:51:50;;;;;;;19.77;17.77;;;;;;;15.59;100.00;155365.34;4987923;28;20473;-87
2023/05/21 02:54:18;;;;;;;18.90;16.90;;;;;;;15.58;100.00;155364.03;4966755;28;20988;-87
2023/05/21 02:56:45;;;;;;;17.50;15.17;;;;;;;15.58;100.00;155362.75;4971710;28;20460;-87
2023/05/21 02:59:12;;;;;;;23.57;17.20;;;;;;;15.56;100.00;155358.84;4992900;28;20450;-87
2023/05/21 03:01:40;;;;;;;20.20;17.47;;;;;;;15.51;100.00;155344.56;4955363;28;20878;-87
2023/05/21 03:04:07;;;;;;;19.20;17.17;;;;;;;15.48;100.00;155336.75;4974473;28;20457;-87
2023/05/21 03:06:33;;;;;;;19.53;16.80;;;;;;;15.46;100.00;155331.56;4966087;28;20453;-87
2023/05/21 03:09:02;;;;;;;19.33;17.30;;;;;;;15.46;100.00;155332.81;4971358;28;20457;-87
2023/05/21 03:11:28;;;;;;;19.20;17.20;;;;;;;15.45;100.00;155330.19;4971323;28;20473;-87
2023/05/21 03:13:55;;;;;;;19.00;16.23;;;;;;;15.46;100.00;155332.81;4954761;28;20544;-87
2023/05/21 03:16:22;;;;;;;19.20;17.17;;;;;;;15.46;100.00;155331.56;4974893;28;20484;-87
2023/05/21 03:18:50;;;;;;;19.53;17.40;;;;;;;15.43;100.00;155325.00;4973740;28;20833;-87
2023/05/21 03:21:17;;;;;;;17.37;15.57;;;;;;;15.41;100.00;155318.53;4971656;28;20443;-87
2023/05/21 03:23:43;;;;;;;22.10;17.20;;;;;;;15.39;100.00;155313.28;4972587;28;20465;-87
2023/05/21 03:26:10;;;;;;;20.93;18.73;;;;;;;15.35;100.00;155304.22;4959200;28;20858;-87
2023/05/21 03:28:37;;;;;;;19.60;17.10;;;;;;;15.34;100.00;155301.59;4965551;28;20917;-86
2023/05/21 03:31:04;;;;;;;20.33;17.03;;;;;;;15.33;100.00;155298.97;4959444;28;20454;-86
2023/05/21 03:33:50;;;;;;;18.03;16.17;;;;;;;15.30;100.00;155291.22;4978790;28;20476;-86
2023/05/21 03:36:35;;;;;;;20.47;16.70;;;;;;;15.33;100.00;155297.72;4967231;28;20441;-86
2023/05/21 03:39:13;;;;;;;22.07;18.00;;;;;;;15.31;100.00;155293.78;4986898;28;20496;-86
2023/05/21 03:41:41;;;;;;;19.37;16.40;;;;;;;15.29;100.00;155288.63;4983630;28;20540;-87
2023/05/21 03:44:11;;;;;;;18.50;16.47;;;;;;;15.28;100.00;155286.00;4972255;28;20867;-87
2023/05/21 03:47:03;;;;;;;18.73;16.50;;;;;;;15.27;100.00;155283.44;4968972;28;20552;-87
2023/05/21 03:49:34;;;;;;;19.53;16.20;;;;;;;15.27;100.00;155282.13;4954630;28;20458;-87
2023/05/21 03:52:01;;;;;;;19.67;16.03;;;;;;;15.24;100.00;155275.63;4990251;28;20456;-86
2023/05/21 03:54:28;;;;;;;18.63;16.67;;;;;;;15.22;100.00;155270.44;4963808;28;20472;-87
2023/05/21 03:56:58;;;;;;;18.57;16.67;;;;;;;15.21;100.00;155267.81;4989657;28;21015;-87
2023/05/21 03:59:25;;;;;;;20.00;17.40;;;;;;;15.21;100.00;155267.81;4976467;28;20543;-87
2023/05/21 04:01:52;;;;;;;20.30;18.20;;;;;;;15.19;100.00;155262.63;4976315;28;20611;-87
2023/05/21 04:04:18;;;;;;;18.90;16.60;;;;;;;15.19;100.00;155262.63;4972544;28;20453;-87
2023/05/21 04:06:47;;;;;;;19.03;17.03;;;;;;;15.18;100.00;155260.00;4971675;28;20461;-87
2023/05/21 04:09:13;;;;;;;18.80;16.17;;;;;;;15.18;100.00;155260.00;4974612;28;21141;-87
2023/05/21 04:11:40;;;;;;;17.77;15.87;;;;;;;15.19;100.00;155262.63;4972838;28;20572;-87
2023/05/21 04:14:07;;;;;;;19.40;17.33;;;;;;;15.19;100.00;155262.63;4972070;28;20477;-88
2023/05/21 04:16:34;;;;;;;22.20;16.63;;;;;;;15.17;100.00;155257.41;4992468;28;20450;-87
2023/05/21 04:19:00;;;;;;;18.73;16.77;;;;;;;15.20;100.00;155265.19;4961472;28;20497;-87
2023/05/21 04:21:30;;;;;;;20.07;16.27;;;;;;;15.17;100.00;155257.41;4970921;28;20504;-87
2023/05/21 04:23:59;;;;;;;19.07;16.70;;;;;;;15.20;100.00;155265.19;4989985;28;20920;-87
2023/05/21 04:26:44;;;;;;;21.93;18.93;;;;;;;15.22;100.00;155270.44;4970576;28;20475;-88
2023/05/21 04:29:11;;;;;;;19.07;16.97;;;;;;;15.19;100.00;155263.94;4993031;28;20976;-87
2023/05/21 04:31:38;;;;;;;19.00;17.00;;;;;;;15.15;100.00;155253.53;4974457;28;20456;-88
2023/05/21 04:34:05;;;;;;;21.63;17.90;;;;;;;15.08;100.00;155234.03;4968169;28;20515;-88
2023/05/21 04:36:32;;;;;;;21.90;18.20;;;;;;;15.09;100.00;155237.91;4988959;28;20454;-88
2023/05/21 04:39:00;;;;;;;18.97;16.97;;;;;;;15.06;100.00;155228.84;4976546;28;20483;-87
2023/05/21 04:41:28;;;;;;;19.90;17.40;;;;;;;15.03;100.00;155221.03;4958350;28;20457;-87
2023/05/21 04:43:54;;;;;;;20.73;17.00;;;;;;;15.03;100.00;155221.03;4987410;28;21267;-87
2023/05/21 04:46:24;;;;;;;21.80;18.30;;;;;;;15.04;100.00;155223.63;4975317;28;20460;-87
2023/05/21 04:48:53;;;;;;;21.80;17.77;;;;;;;15.07;100.00;155231.41;4976408;28;20486;-87
2023/05/21 04:51:20;;;;;;;18.47;15.47;;;;;;;15.10;100.00;155239.22;4971578;28;20547;-87
2023/05/21 04:53:48;;;;;;;19.73;17.70;;;;;;;15.10;100.00;155240.53;4962864;28;20649;-78
2023/05/21 04:56:18;;;;;;;19.17;17.07;;;;;;;15.12;100.00;155244.41;4974578;28;20469;-78
2023/05/21 04:58:44;;;;;;;18.97;16.87;;;;;;;15.10;100.00;155240.53;4990733;28;20439;-78
2023/05/21 05:01:12;;;;;;;19.63;17.20;;;;;;;15.12;100.00;155244.41;4969513;28;20842;-78
2023/05/21 05:03:38;;;;;;;18.97;16.40;;;;;;;15.12;100.00;155244.41;4958958;28;20467;-78
2023/05/21 05:06:06;;;;;;;19.37;15.63;;;;;;;15.16;100.00;155256.13;4992358;28;20467;-78
2023/05/21 05:08:33;;;;;;;21.60;15.63;;;;;;;15.18;100.00;155261.31;4968353;28;20564;-78
2023/05/21 05:10:59;;;;;;;19.23;16.17;;;;;;;15.18;100.00;155261.31;4965313;28;20462;-78
2023/05/21 05:13:27;;;;;;;17.70;15.80;;;;;;;15.26;100.00;155280.81;4985007;28;20455;-78
2023/05/21 05:15:54;;;;;;;19.40;17.40;;;;;;;15.28;100.00;155286.00;4984622;28;20470;-78
2023/05/21 05:18:21;;;;;;;21.13;17.87;;;;;;;15.26;100.00;155280.81;4987228;28;20437;-77
2023/05/21 05:20:47;;;;;;;19.77;17.00;;;;;;;15.32;100.00;155296.41;4977871;28;20465;-78
2023/05/21 05:23:14;;;;;;;17.33;15.57;;;;;;;15.33;100.00;155298.97;4971868;28;20468;-78
2023/05/21 05:25:41;;;;;;;19.30;17.20;;;;;;;15.36;100.00;155305.47;4970821;28;20460;-78
2023/05/21 05:28:08;;;;;;;18.53;16.17;;;;;;;15.36;100.00;155306.78;4953977;28;20465;-78
2023/05/21 05:30:37;;;;;;;19.70;16.97;;;;;;;15.40;100.00;155317.22;4979236;28;20449;-78
2023/05/21 05:33:17;;;;;;;17.73;15.93;;;;;;;15.56;100.00;155358.84;4970730;28;20805;-78
2023/05/21 05:35:43;;;;;;;18.50;15.60;;;;;;;15.60;100.00;155369.22;4973061;28;20983;-78
2023/05/21 05:38:10;;;;;;;20.87;15.60;;;;;;;15.62;100.00;155374.41;4987126;28;20469;-78
2023/05/21 05:40:37;;;;;;;20.17;17.37;;;;;;;15.64;100.00;155378.34;4963585;28;20464;-78
2023/05/21 05:43:04;;;;;;;19.87;17.80;;;;;;;15.69;100.00;155391.34;4967292;28;21000;-78
2023/05/21 05:45:30;;;;;;;19.33;16.90;;;;;;;15.77;100.00;155412.13;4986922;28;21113;-78
2023/05/21 05:47:58;;;;;;;19.27;17.13;;;;;;;15.83;100.00;155429.03;4964326;28;20473;-78
2023/05/21 05:50:25;;;;;;;19.63;16.70;;;;;;;15.84;100.00;155431.63;4968072;28;20613;-78
2023/05/21 05:52:52;;;;;;;20.47;18.10;;;;;;;15.90;100.00;155445.94;4989089;28;20792;-78
2023/05/21 05:55:20;;;;;;;18.27;16.17;;;;;;;15.96;100.00;155461.56;4985685;28;21005;-78
2023/05/21 05:57:47;;;;;;;21.10;16.97;;;;;;;16.02;100.00;155475.88;4975731;28;20454;-78
2023/05/21 06:00:16;;;;;;;19.13;17.00;;;;;;;16.06;100.00;155486.25;4959561;28;20472;-78
2023/05/21 06:02:47;;;;;;;17.93;15.87;;;;;;;16.15;100.00;155509.66;4997214;28;20953;-78
2023/05/21 06:05:16;;;;;;;19.30;17.30;;;;;;;16.15;100.00;155510.94;4959629;28;20476;-78
2023/05/21 06:07:42;;;;;;;18.57;16.60;;;;;;;16.19;100.00;155521.38;4983167;28;20472;-78
2023/05/21 06:10:10;;;;;;;19.80;16.03;;;;;;;16.18;100.00;155518.75;5004530;28;21291;-78
2023/05/21 06:12:36;;;;;;;17.90;16.00;;;;;;;16.26;100.00;155538.25;4998830;28;20535;-78
2023/05/21 06:15:04;;;;;;;19.47;17.47;;;;;;;16.32;100.00;155553.84;5004458;28;20909;-78
2023/05/21 06:17:31;;;;;;;18.03;15.70;;;;;;;16.39;100.00;155572.06;4985399;28;20463;-78
2023/05/21 06:19:58;;;;;;;20.40;17.03;;;;;;;16.50;100.00;155600.66;5001533;28;20491;-78
2023/05/21 06:22:27;;;;;;;22.33;15.27;;;;;;;16.55;100.00;155613.72;5017459;28;20452;-78
2023/05/21 06:24:55;;;;;;;17.73;15.93;;;;;;;16.64;100.00;155637.16;4977768;28;20457;-78
2023/05/21 06:27:21;;;;;;;18.93;16.20;;;;;;;16.77;100.00;155669.66;5005554;28;20799;-79
2023/05/21 06:29:49;;;;;;;16.67;14.87;;;;;;;16.84;98.72;155689.19;4990039;28;20479;-78
2023/05/21 06:32:15;;;;;;;17.17;15.47;;;;;;;16.96;96.17;155720.44;5004378;28;20484;-79
2023/05/21 06:34:42;;;;;;;16.27;14.67;;;;;;;17.07;96.86;155747.75;4969913;28;20476;-79
2023/05/21 06:37:09;;;;;;;16.20;14.57;;;;;;;17.20;96.30;155781.59;5005188;28;20457;-79
2023/05/21 06:39:37;;;;;;;14.53;13.10;;;;;;;17.28;93.04;155801.09;5007923;28;20468;-79
2023/05/21 06:42:04;;;;;;;15.60;14.10;;;;;;;17.47;91.76;155851.84;4990024;28;20523;-88
2023/05/21 06:44:53;;;;;;;15.83;13.90;;;;;;;17.53;91.93;155866.22;4973706;28;20468;-89
2023/05/21 06:47:25;;;;;;;15.30;13.67;;;;;;;17.73;89.95;155918.31;4980963;28;20461;-89
2023/05/21 06:49:52;;;;;;;16.33;14.73;;;;;;;17.77;89.20;155928.69;5004911;28;20827;-88
2023/05/21 06:52:18;;;;;;;17.67;14.30;;;;;;;17.73;90.62;155918.31;4986132;28;21011;-89
2023/05/21 06:54:47;;;;;;;19.20;15.27;;;;;;;17.79;90.58;155933.91;4975952;28;20464;-88
2023/05/21 06:57:16;;;;;;;16.67;14.97;;;;;;;17.85;89.50;155949.53;4994660;28;20453;-88
2023/05/21 06:59:43;;;;;;;15.50;12.80;;;;;;;17.91;89.81;155963.88;5001497;28;20481;-89
2023/05/21 07:02:10;;;;;;;16.00;14.30;;;;;;;18.06;90.46;156002.91;4983522;28;20452;-86
2023/05/21 07:04:36;;;;;;;16.33;14.63;;;;;;;18.14;88.10;156025.06;4983332;28;20512;-88
2023/05/21 07:07:03;;;;;;;14.80;13.03;;;;;;;18.22;87.49;156045.91;4999883;28;20460;-88
2023/05/21 07:09:31;;;;;;;16.63;14.80;;;;;;;18.33;87.54;156071.94;4967529;28;20481;-87
2023/05/21 07:12:00;;;;;;;16.70;14.30;;;;;;;18.48;86.45;156112.38;4994175;28;20538;-88
2023/05/21 07:14:26;;;;;;;15.00;13.17;;;;;;;18.54;85.59;156126.69;4989808;28;20455;-88
2023/05/21 07:16:53;;;;;;;14.63;13.10;;;;;;;18.69;84.97;156165.81;4986504;28;20489;-88
2023/05/21 07:19:20;;;;;;;15.80;14.20;;;;;;;18.76;86.03;156184.03;4991671;28;20479;-88
2023/05/21 07:21:46;;;;;;;15.50;14.00;;;;;;;18.94;83.06;156230.94;4973284;28;20449;-88
2023/05/21 07:24:13;;;;;;;15.50;13.87;;;;;;;19.06;82.52;156262.19;4985324;28;20453;-88
2023/05/21 07:26:40;;;;;;;15.83;14.33;;;;;;;19.03;82.51;156254.41;4990067;28;20545;-88
2023/05/21 07:29:08;;;;;;;14.50;13.00;;;;;;;19.07;80.54;156264.81;4992088;28;20472;-88
2023/05/21 07:31:35;;;;;;;18.93;14.27;;;;;;;19.06;82.30;156262.19;4994241;28;20449;-88
2023/05/21 07:34:02;;;;;;;14.80;13.33;;;;;;;19.03;81.21;156254.41;5004946;28;20459;-88
2023/05/21 07:36:32;;;;;;;15.13;13.63;;;;;;;19.22;81.90;156302.63;4976165;28;20539;-88
2023/05/21 07:38:59;;;;;;;14.83;13.33;;;;;;;19.56;79.42;156390.00;4975287;28;20495;-88
2023/05/21 07:41:26;;;;;;;13.97;12.40;;;;;;;19.66;76.92;156416.06;4981191;28;20543;-88
2023/05/21 07:43:53;;;;;;;14.70;13.10;;;;;;;19.67;79.21;156418.69;5010390;28;20456;-88
2023/05/21 07:46:21;;;;;;;15.63;14.10;;;;;;;19.98;78.50;156499.50;4974544;28;20504;-89
2023/05/21 07:48:52;;;;;;;14.67;13.17;;;;;;;20.06;77.44;156520.38;4988495;28;20477;-89
2023/05/21 07:51:19;;;;;;;14.97;13.47;;;;;;;20.20;76.18;156555.59;4987356;28;20454;-88
2023/05/21 07:53:46;;;;;;;16.53;13.30;;;;;;;20.34;74.04;156593.44;4973831;28;20445;-89
2023/05/21 07:56:15;;;;;;;13.93;12.43;;;;;;;20.35;74.52;156596.06;4975335;28;20468;-89
2023/05/21 07:58:44;;;;;;;14.73;13.03;;;;;;;20.50;73.56;156633.88;4984324;28;20543;-89
2023/05/21 08:01:12;;;;;;;14.17;12.67;;;;;;;20.62;72.72;156666.47;4975868;28;20766;-89
2023/05/21 08:03:40;;;;;;;14.07;12.50;;;;;;;20.79;74.59;156709.53;4973458;28;20815;-89
2023/05/21 08:06:07;;;;;;;16.70;13.73;;;;;;;20.96;73.69;156753.94;4995729;28;20543;-89
2023/05/21 08:08:33;;;;;;;14.30;12.90;;;;;;;21.08;72.25;156783.97;4985217;28;20468;-89
2023/05/21 08:11:00;;;;;;;14.37;13.03;;;;;;;21.15;71.48;156803.53;4985454;28;20556;-89
2023/05/21 08:13:27;;;;;;;16.17;13.60;;;;;;;21.06;71.39;156778.69;4987981;28;20491;-89
2023/05/21 08:15:54;;;;;;;15.27;13.67;;;;;;;20.97;72.53;156756.50;4969718;28;20474;-89
2023/05/21 08:18:22;;;;;;;14.80;13.20;;;;;;;20.99;71.75;156760.44;4979604;28;20441;-89
2023/05/21 08:20:51;;;;;;;13.97;12.57;;;;;;;20.96;72.01;156753.94;4996000;28;20449;-90
2023/05/21 08:23:20;;;;;;;21.00;14.27;;;;;;;20.91;72.33;156739.56;4985511;28;20465;-90
2023/05/21 08:25:52;;;;;;;15.60;14.00;;;;;;;21.03;72.31;156770.88;4974025;28;20943;-90
2023/05/21 08:28:21;;;;;;;15.07;13.47;;;;;;;21.24;72.14;156827.03;4982064;28;20539;-87
2023/05/21 08:30:53;;;;;;;13.70;12.07;;;;;;;21.43;70.87;156874.03;4990100;28;20643;-87
2023/05/21 08:33:24;;;;;;;15.60;14.00;;;;;;;21.65;70.59;156931.47;4987362;28;20832;-89
2023/05/21 08:35:56;;;;;;;14.63;13.13;;;;;;;21.96;69.82;157012.47;4979056;28;20460;-90
2023/05/21 08:38:29;;;;;;;15.93;14.10;;;;;;;22.07;67.08;157041.22;4984388;28;20463;-90
2023/05/21 08:41:10;;;;;;;14.73;13.23;;;;;;;21.90;67.42;156995.47;4995154;28;20456;-90
2023/05/21 08:43:38;;;;;;;16.17;14.67;;;;;;;21.88;69.07;156990.25;4979556;28;20465;-90
2023/05/21 08:46:06;;;;;;;15.00;13.43;;;;;;;21.99;68.73;157019.00;4971788;28;20484;-91
2023/05/21 08:48:36;;;;;;;14.20;12.80;;;;;;;22.01;67.35;157024.22;5010507;28;20476;-90
2023/05/21 08:51:05;;;;;;;14.17;12.77;;;;;;;21.88;67.52;156990.25;4980155;28;20476;-90
2023/05/21 08:53:37;;;;;;;15.37;13.80;;;;;;;21.72;66.98;156951.06;4980475;28;20531;-90
2023/05/21 08:56:11;;;;;;;15.43;13.93;;;;;;;21.66;68.12;156935.38;4994276;28;20971;-91
2023/05/21 08:58:45;;;;;;;14.43;13.07;;;;;;;21.71;68.33;156948.44;4977420;28;20555;-89
2023/05/21 09:01:17;;;;;;;14.70;13.40;;;;;;;21.62;69.46;156924.97;4979647;28;20536;-91
2023/05/21 09:03:45;;;;;;;16.03;14.43;;;;;;;21.64;69.22;156930.16;4973283;28;20445;-91
2023/05/21 09:06:14;;;;;;;15.17;13.77;;;;;;;21.40;68.62;156866.19;4993991;28;20442;-90
2023/05/21 09:08:43;;;;;;;14.60;13.13;;;;;;;21.27;68.93;156832.25;4990965;28;20480;-91
2023/05/21 09:11:26;;;;;;;14.80;13.23;;;;;;;21.15;69.79;156802.25;4987433;28;20484;-90
2023/05/21 09:14:02;;;;;;;15.10;13.60;;;;;;;21.26;70.83;156830.94;4993967;28;20465;-91
2023/05/21 09:16:49;;;;;;;15.20;13.73;;;;;;;21.32;69.72;156846.63;4993633;28;20908;-91
2023/05/21 09:19:16;;;;;;;14.80;13.43;;;;;;;21.32;70.47;156845.31;4975851;28;20809;-90
2023/05/21 09:21:44;;;;;;;16.03;14.43;;;;;;;21.42;70.33;156872.72;4972708;28;20456;-90
2023/05/21 09:24:14;;;;;;;15.20;13.70;;;;;;;21.42;70.30;156871.44;4991669;28;20445;-91
2023/05/21 09:26:42;;;;;;;15.10;13.63;;;;;;;21.55;69.33;156906.66;5002045;28;20514;-91
2023/05/21 09:29:09;;;;;;;15.80;14.20;;;;;;;21.40;70.74;156867.50;4998661;28;20863;-91
2023/05/21 09:31:36;;;;;;;15.53;13.97;;;;;;;21.53;70.69;156901.44;4983147;28;20534;-90
2023/05/21 09:34:03;;;;;;;16.13;14.53;;;;;;;21.35;70.49;156854.44;4999027;28;20457;-91
2023/05/21 09:36:33;;;;;;;15.23;13.57;;;;;;;21.35;70.59;156854.44;4976686;28;20475;-90
2023/05/21 09:39:02;;;;;;;13.57;12.27;;;;;;;21.22;70.36;156820.53;5011916;28;20449;-91
2023/05/21 09:41:34;;;;;;;14.53;13.07;;;;;;;21.33;71.15;156849.25;4985592;28;20448;-91
2023/05/21 09:44:01;;;;;;;14.40;12.90;;;;;;;21.54;69.60;156904.06;5011926;28;20830;-91
2023/05/21 09:46:37;;;;;;;15.17;13.67;;;;;;;21.51;69.25;156896.22;4994624;28;20459;-90
2023/05/21 09:49:04;;;;;;;15.47;13.97;;;;;;;21.47;70.39;156885.75;5004484;28;20831;-91
2023/05/21 09:51:31;;;;;;;14.20;12.87;;;;;;;21.46;69.10;156883.19;5005949;28;20508;-91
2023/05/21 09:53:58;;;;;;;13.83;12.47;;;;;;;21.58;68.83;156914.47;5000916;28;20450;-91
2023/05/21 09:56:28;;;;;;;13.73;12.37;;;;;;;21.48;69.21;156887.06;5016290;28;20536;-90
2023/05/21 09:58:55;;;;;;;12.63;11.53;;;;;;;21.56;69.28;156909.28;4987061;28;20444;-91
2023/05/21 10:01:23;;;;;;;12.87;11.67;;;;;;;21.45;67.70;156880.53;5006768;28;20460;-91
2023/05/21 10:03:53;;;;;;;13.63;12.23;;;;;;;21.15;68.71;156802.25;4981559;28;20461;-89
2023/05/21 10:06:20;;;;;;;12.60;11.40;;;;;;;21.29;69.87;156838.78;4997833;28;20456;-88
2023/05/21 10:08:48;;;;;;;22.37;12.23;;;;;;;21.39;67.93;156863.59;4997437;28;20460;-89
2023/05/21 10:11:16;;;;;;;14.83;12.10;;;;;;;21.33;67.19;156847.94;4992973;28;20479;-89
2023/05/21 10:13:48;;;;;;;12.77;11.47;;;;;;;21.23;68.46;156823.16;4982788;28;20452;-90
2023/05/21 10:16:15;;;;;;;12.33;11.17;;;;;;;21.19;69.26;156814.00;4995968;28;20493;-90
2023/05/21 10:18:42;;;;;;;14.00;12.60;;;;;;;21.36;68.69;156855.75;4994601;28;20492;-90
2023/05/21 10:21:09;;;;;;;13.00;11.80;;;;;;;21.40;68.92;156867.50;4978773;28;20441;-90
2023/05/21 10:23:36;;;;;;;12.20;11.10;;;;;;;21.52;68.63;156898.84;4989518;28;20472;-90
2023/05/21 10:26:04;;;;;;;12.60;11.33;;;;;;;21.60;67.67;156918.44;4996327;28;20439;-90
2023/05/21 10:28:31;;;;;;;12.63;11.43;;;;;;;21.64;67.06;156928.84;5001460;28;20956;-89
2023/05/21 10:30:59;;;;;;;13.03;11.70;;;;;;;21.64;67.31;156930.16;4980360;28;21301;-89
2023/05/21 10:33:26;;;;;;;12.60;11.47;;;;;;;21.68;67.10;156940.59;5001430;28;20468;-90
2023/05/21 10:35:54;;;;;;;12.77;11.50;;;;;;;21.71;66.92;156947.16;4978673;28;20798;-90
2023/05/21 10:38:21;;;;;;;11.97;10.87;;;;;;;21.80;67.88;156970.63;5003612;28;20456;-90
2023/05/21 10:40:48;;;;;;;11.80;10.70;;;;;;;21.87;66.14;156987.69;4975836;28;20453;-90
2023/05/21 10:43:51;;;;;;;13.00;11.80;;;;;;;21.92;66.49;157002.03;4981678;28;20471;-91
2023/05/21 10:46:37;;;;;;;12.30;11.10;;;;;;;21.90;66.16;156995.47;4988479;28;20445;-90
2023/05/21 10:49:27;;;;;;;12.30;11.10;;;;;;;21.81;65.97;156973.25;5005943;28;20548;-90
2023/05/21 10:52:00;;;;;;;12.23;11.13;;;;;;;21.77;66.59;156964.09;4998460;28;20452;-90
2023/05/21 10:54:53;;;;;;;12.83;11.63;;;;;;;21.87;66.18;156988.94;4995033;28;20469;-90
2023/05/21 10:57:53;;;;;;;12.70;11.60;;;;;;;21.92;65.48;157000.72;4997251;28;20880;-90
2023/05/21 11:00:20;;;;;;;12.00;10.80;;;;;;;21.97;66.12;157015.09;4987788;28;20445;-90
2023/05/21 11:02:50;;;;;;;12.90;11.70;;;;;;;22.02;65.71;157026.84;4998447;28;20457;-90
2023/05/21 11:05:17;;;;;;;13.67;12.47;;;;;;;21.91;65.39;156998.09;4991318;28;20471;-90
2023/05/21 11:07:51;;;;;;;13.20;11.90;;;;;;;21.90;65.98;156995.47;4986113;28;20456;-90
2023/05/21 11:10:31;;;;;;;13.70;12.30;;;;;;;21.89;66.39;156992.88;4984637;28;20483;-90
2023/05/21 11:13:14;;;;;;;13.33;12.13;;;;;;;22.03;65.56;157029.47;4986657;28;20499;-90
2023/05/21 11:16:06;;;;;;;12.97;11.50;;;;;;;22.09;65.01;157046.41;5003617;28;21940;-90